43.6°F
Current conditions from King Hill
Updated every 5 minutes
 
  Sunday November 23, 2014

Station Historical Data
Daily Summary for July 31, 2012 Units:  Both    English   Metric
« Previous Day
Next Day »
Daily Weekly Monthly Yearly Custom
  High: Low: Average:
Temperature: 85.7 °F /  29.8 °C 65.6 °F /  18.7 °C 74.6 °F /  23.7 °C
Dew Point: 69.1 °F /  20.6 °C 56.0 °F /  13.3 °C 62.2 °F /  16.8 °C
Humidity: 84% 38% 67%
Wind Speed: 8.0mph /  12.9km/h - 3.4mph /  5.5km/h
Wind Gust: 17.0mph /  27.4km/h - -
Wind- - SSW
Pressure: 29.98 in /  1015.1 hPa 29.81 in /  1009.4 hPa -
Precipitation: 0.00 in /  0 mm    
Historical Graphs
 
 
Tabular Data for July 31, 2012
Time Temperature Dew Point Pressure Wind Wind Speed Wind Gust Humidity Daily Rainfall
00:05 68.4 °F /  20.2 °C 60.9 °F /  16.1 °C 29.97in /  1014.8hPa SW 2.0mph /  3.2km/h 7.0mph /  11.3km/h 77% 0.00in /  0mm
00:10 68.5 °F /  20.3 °C 61.0 °F /  16.1 °C 29.97in /  1014.8hPa Calm   7.0mph /  11.3km/h 77% 0.00in /  0mm
00:15 68.5 °F /  20.3 °C 61.0 °F /  16.1 °C 29.97in /  1014.8hPa Calm   6.0mph /  9.7km/h 77% 0.00in /  0mm
00:20 68.6 °F /  20.3 °C 61.1 °F /  16.2 °C 29.97in /  1014.8hPa SSW 1.0mph /  1.6km/h 6.0mph /  9.7km/h 77% 0.00in /  0mm
00:25 68.6 °F /  20.3 °C 61.1 °F /  16.2 °C 29.97in /  1014.8hPa SSW 2.0mph /  3.2km/h 6.0mph /  9.7km/h 77% 0.00in /  0mm
00:30 68.6 °F /  20.3 °C 61.1 °F /  16.2 °C 29.97in /  1014.8hPa SSW 2.0mph /  3.2km/h 5.0mph /  8km/h 77% 0.00in /  0mm
00:35 68.6 °F /  20.3 °C 61.5 °F /  16.4 °C 29.97in /  1014.8hPa SW 2.0mph /  3.2km/h 7.0mph /  11.3km/h 78% 0.00in /  0mm
00:40 68.6 °F /  20.3 °C 61.5 °F /  16.4 °C 29.97in /  1014.8hPa SSW 2.0mph /  3.2km/h 10.0mph /  16.1km/h 78% 0.00in /  0mm
00:45 68.4 °F /  20.2 °C 61.3 °F /  16.3 °C 29.97in /  1014.8hPa Calm   10.0mph /  16.1km/h 78% 0.00in /  0mm
00:50 68.2 °F /  20.1 °C 61.1 °F /  16.2 °C 29.98in /  1015.1hPa SW 3.0mph /  4.8km/h 7.0mph /  11.3km/h 78% 0.00in /  0mm
00:55 68.0 °F /  20 °C 61.3 °F /  16.3 °C 29.98in /  1015.1hPa SSW 2.0mph /  3.2km/h 7.0mph /  11.3km/h 79% 0.00in /  0mm
01:00 67.7 °F /  19.8 °C 61.3 °F /  16.3 °C 29.98in /  1015.1hPa South 1.0mph /  1.6km/h 6.0mph /  9.7km/h 80% 0.00in /  0mm
01:05 67.5 °F /  19.7 °C 61.1 °F /  16.2 °C 29.97in /  1014.8hPa Calm   5.0mph /  8km/h 80% 0.00in /  0mm
01:10 67.4 °F /  19.7 °C 61.4 °F /  16.3 °C 29.97in /  1014.8hPa Calm   5.0mph /  8km/h 81% 0.00in /  0mm
01:15 67.4 °F /  19.7 °C 61.4 °F /  16.3 °C 29.97in /  1014.8hPa SW 1.0mph /  1.6km/h 8.0mph /  12.9km/h 81% 0.00in /  0mm
01:20 67.6 °F /  19.8 °C 61.6 °F /  16.4 °C 29.97in /  1014.8hPa SW 1.0mph /  1.6km/h 8.0mph /  12.9km/h 81% 0.00in /  0mm
01:25 67.8 °F /  19.9 °C 61.8 °F /  16.6 °C 29.97in /  1014.8hPa Calm   7.0mph /  11.3km/h 81% 0.00in /  0mm
01:30 68.0 °F /  20 °C 62.0 °F /  16.7 °C 29.97in /  1014.8hPa SSW 2.0mph /  3.2km/h 7.0mph /  11.3km/h 81% 0.00in /  0mm
01:35 68.3 °F /  20.2 °C 62.2 °F /  16.8 °C 29.97in /  1014.8hPa SSW 4.0mph /  6.4km/h 11.0mph /  17.7km/h 81% 0.00in /  0mm
01:40 68.5 °F /  20.3 °C 62.1 °F /  16.7 °C 29.97in /  1014.8hPa SSW 1.0mph /  1.6km/h 11.0mph /  17.7km/h 80% 0.00in /  0mm
01:45 68.7 °F /  20.4 °C 62.3 °F /  16.8 °C 29.96in /  1014.4hPa SW 3.0mph /  4.8km/h 10.0mph /  16.1km/h 80% 0.00in /  0mm
01:50 68.8 °F /  20.4 °C 62.4 °F /  16.9 °C 29.96in /  1014.4hPa SSW 3.0mph /  4.8km/h 10.0mph /  16.1km/h 80% 0.00in /  0mm
01:55 69.0 °F /  20.6 °C 62.6 °F /  17 °C 29.96in /  1014.4hPa SSW 4.0mph /  6.4km/h 12.0mph /  19.3km/h 80% 0.00in /  0mm
02:00 69.1 °F /  20.6 °C 62.3 °F /  16.8 °C 29.96in /  1014.4hPa SSW 2.0mph /  3.2km/h 12.0mph /  19.3km/h 79% 0.00in /  0mm
02:05 69.2 °F /  20.7 °C 62.4 °F /  16.9 °C 29.96in /  1014.4hPa SW 3.0mph /  4.8km/h 10.0mph /  16.1km/h 79% 0.00in /  0mm
02:10 69.2 °F /  20.7 °C 62.4 °F /  16.9 °C 29.96in /  1014.4hPa SW 3.0mph /  4.8km/h 8.0mph /  12.9km/h 79% 0.00in /  0mm
02:15 69.2 °F /  20.7 °C 62.4 °F /  16.9 °C 29.96in /  1014.4hPa SSW 3.0mph /  4.8km/h 9.0mph /  14.5km/h 79% 0.00in /  0mm
02:20 69.2 °F /  20.7 °C 62.4 °F /  16.9 °C 29.96in /  1014.4hPa Calm   9.0mph /  14.5km/h 79% 0.00in /  0mm
02:25 69.1 °F /  20.6 °C 62.3 °F /  16.8 °C 29.96in /  1014.4hPa South 1.0mph /  1.6km/h 9.0mph /  14.5km/h 79% 0.00in /  0mm
02:30 69.1 °F /  20.6 °C 62.7 °F /  17.1 °C 29.96in /  1014.4hPa SW 5.0mph /  8km/h 12.0mph /  19.3km/h 80% 0.00in /  0mm
02:35 69.2 °F /  20.7 °C 62.8 °F /  17.1 °C 29.96in /  1014.4hPa SSW 4.0mph /  6.4km/h 12.0mph /  19.3km/h 80% 0.00in /  0mm
02:40 69.3 °F /  20.7 °C 62.9 °F /  17.2 °C 29.96in /  1014.4hPa SW 2.0mph /  3.2km/h 8.0mph /  12.9km/h 80% 0.00in /  0mm
02:45 69.3 °F /  20.7 °C 62.9 °F /  17.2 °C 29.96in /  1014.4hPa SSW 4.0mph /  6.4km/h 13.0mph /  20.9km/h 80% 0.00in /  0mm
02:50 69.4 °F /  20.8 °C 63.0 °F /  17.2 °C 29.96in /  1014.4hPa SW 2.0mph /  3.2km/h 14.0mph /  22.5km/h 80% 0.00in /  0mm
02:55 69.4 °F /  20.8 °C 63.0 °F /  17.2 °C 29.96in /  1014.4hPa SSW 3.0mph /  4.8km/h 14.0mph /  22.5km/h 80% 0.00in /  0mm
03:00 69.4 °F /  20.8 °C 63.0 °F /  17.2 °C 29.96in /  1014.4hPa SSW 1.0mph /  1.6km/h 11.0mph /  17.7km/h 80% 0.00in /  0mm
03:05 69.2 °F /  20.7 °C 62.8 °F /  17.1 °C 29.96in /  1014.4hPa SW 3.0mph /  4.8km/h 11.0mph /  17.7km/h 80% 0.00in /  0mm
03:10 69.1 °F /  20.6 °C 62.7 °F /  17.1 °C 29.96in /  1014.4hPa SSW 2.0mph /  3.2km/h 11.0mph /  17.7km/h 80% 0.00in /  0mm
03:15 69.0 °F /  20.6 °C 62.6 °F /  17 °C 29.96in /  1014.4hPa SSW 1.0mph /  1.6km/h 11.0mph /  17.7km/h 80% 0.00in /  0mm
03:20 68.9 °F /  20.5 °C 62.8 °F /  17.1 °C 29.96in /  1014.4hPa SSW 3.0mph /  4.8km/h 8.0mph /  12.9km/h 81% 0.00in /  0mm
03:25 68.9 °F /  20.5 °C 62.8 °F /  17.1 °C 29.96in /  1014.4hPa SW 1.0mph /  1.6km/h 9.0mph /  14.5km/h 81% 0.00in /  0mm
03:30 68.9 °F /  20.5 °C 62.8 °F /  17.1 °C 29.96in /  1014.4hPa SSW 4.0mph /  6.4km/h 11.0mph /  17.7km/h 81% 0.00in /  0mm
03:35 68.9 °F /  20.5 °C 62.8 °F /  17.1 °C 29.96in /  1014.4hPa SW 2.0mph /  3.2km/h 11.0mph /  17.7km/h 81% 0.00in /  0mm
03:40 68.9 °F /  20.5 °C 62.8 °F /  17.1 °C 29.96in /  1014.4hPa SW 4.0mph /  6.4km/h 10.0mph /  16.1km/h 81% 0.00in /  0mm
03:45 68.8 °F /  20.4 °C 62.7 °F /  17.1 °C 29.96in /  1014.4hPa SW 1.0mph /  1.6km/h 9.0mph /  14.5km/h 81% 0.00in /  0mm
03:50 68.8 °F /  20.4 °C 62.7 °F /  17.1 °C 29.96in /  1014.4hPa SSW 2.0mph /  3.2km/h 11.0mph /  17.7km/h 81% 0.00in /  0mm
03:55 68.8 °F /  20.4 °C 62.7 °F /  17.1 °C 29.96in /  1014.4hPa SSW 3.0mph /  4.8km/h 11.0mph /  17.7km/h 81% 0.00in /  0mm
04:00 68.7 °F /  20.4 °C 62.6 °F /  17 °C 29.96in /  1014.4hPa SW 2.0mph /  3.2km/h 8.0mph /  12.9km/h 81% 0.00in /  0mm
04:05 68.7 °F /  20.4 °C 62.6 °F /  17 °C 29.96in /  1014.4hPa SW 3.0mph /  4.8km/h 10.0mph /  16.1km/h 81% 0.00in /  0mm
04:10 68.5 °F /  20.3 °C 62.4 °F /  16.9 °C 29.96in /  1014.4hPa SW 2.0mph /  3.2km/h 10.0mph /  16.1km/h 81% 0.00in /  0mm
04:15 68.4 °F /  20.2 °C 62.3 °F /  16.8 °C 29.96in /  1014.4hPa SW 3.0mph /  4.8km/h 8.0mph /  12.9km/h 81% 0.00in /  0mm
04:20 68.3 °F /  20.2 °C 62.2 °F /  16.8 °C 29.96in /  1014.4hPa SSW 3.0mph /  4.8km/h 8.0mph /  12.9km/h 81% 0.00in /  0mm
04:25 68.1 °F /  20.1 °C 62.4 °F /  16.9 °C 29.96in /  1014.4hPa SW 3.0mph /  4.8km/h 7.0mph /  11.3km/h 82% 0.00in /  0mm
04:30 68.0 °F /  20 °C 62.3 °F /  16.8 °C 29.96in /  1014.4hPa SW 2.0mph /  3.2km/h 7.0mph /  11.3km/h 82% 0.00in /  0mm
04:35 67.9 °F /  19.9 °C 62.2 °F /  16.8 °C 29.96in /  1014.4hPa SSW 3.0mph /  4.8km/h 11.0mph /  17.7km/h 82% 0.00in /  0mm
04:45 68.3 °F /  20.2 °C 62.6 °F /  17 °C 29.96in /  1014.4hPa SSW 5.0mph /  8km/h 14.0mph /  22.5km/h 82% 0.00in /  0mm
04:50 68.2 °F /  20.1 °C 62.5 °F /  16.9 °C 29.96in /  1014.4hPa SSW 4.0mph /  6.4km/h 12.0mph /  19.3km/h 82% 0.00in /  0mm
04:55 68.1 °F /  20.1 °C 62.4 °F /  16.9 °C 29.96in /  1014.4hPa SSW 6.0mph /  9.7km/h 14.0mph /  22.5km/h 82% 0.00in /  0mm
05:00 68.1 °F /  20.1 °C 62.4 °F /  16.9 °C 29.96in /  1014.4hPa SW 3.0mph /  4.8km/h 14.0mph /  22.5km/h 82% 0.00in /  0mm
05:05 68.0 °F /  20 °C 62.3 °F /  16.8 °C 29.96in /  1014.4hPa SSW 2.0mph /  3.2km/h 11.0mph /  17.7km/h 82% 0.00in /  0mm
05:10 68.0 °F /  20 °C 62.3 °F /  16.8 °C 29.96in /  1014.4hPa SSW 2.0mph /  3.2km/h 16.0mph /  25.7km/h 82% 0.00in /  0mm
05:15 68.0 °F /  20 °C 62.3 °F /  16.8 °C 29.96in /  1014.4hPa SW 3.0mph /  4.8km/h 16.0mph /  25.7km/h 82% 0.00in /  0mm
05:20 67.9 °F /  19.9 °C 62.2 °F /  16.8 °C 29.96in /  1014.4hPa SW 3.0mph /  4.8km/h 12.0mph /  19.3km/h 82% 0.00in /  0mm
05:25 67.9 °F /  19.9 °C 62.2 °F /  16.8 °C 29.96in /  1014.4hPa SSW 4.0mph /  6.4km/h 12.0mph /  19.3km/h 82% 0.00in /  0mm
05:30 68.0 °F /  20 °C 62.3 °F /  16.8 °C 29.96in /  1014.4hPa SSW 6.0mph /  9.7km/h 10.0mph /  16.1km/h 82% 0.00in /  0mm
05:35 68.0 °F /  20 °C 62.3 °F /  16.8 °C 29.96in /  1014.4hPa SSW 3.0mph /  4.8km/h 9.0mph /  14.5km/h 82% 0.00in /  0mm
05:40 67.9 °F /  19.9 °C 62.2 °F /  16.8 °C 29.96in /  1014.4hPa SW 3.0mph /  4.8km/h 12.0mph /  19.3km/h 82% 0.00in /  0mm
05:45 67.8 °F /  19.9 °C 62.1 °F /  16.7 °C 29.96in /  1014.4hPa SSW 4.0mph /  6.4km/h 12.0mph /  19.3km/h 82% 0.00in /  0mm
05:50 67.7 °F /  19.8 °C 62.0 °F /  16.7 °C 29.96in /  1014.4hPa SW 3.0mph /  4.8km/h 12.0mph /  19.3km/h 82% 0.00in /  0mm
05:55 67.6 °F /  19.8 °C 61.9 °F /  16.6 °C 29.96in /  1014.4hPa SW 1.0mph /  1.6km/h 9.0mph /  14.5km/h 82% 0.00in /  0mm
06:00 67.5 °F /  19.7 °C 62.2 °F /  16.8 °C 29.96in /  1014.4hPa SSW 4.0mph /  6.4km/h 10.0mph /  16.1km/h 83% 0.00in /  0mm
06:05 67.4 °F /  19.7 °C 62.1 °F /  16.7 °C 29.96in /  1014.4hPa SSW 2.0mph /  3.2km/h 10.0mph /  16.1km/h 83% 0.00in /  0mm
06:10 67.4 °F /  19.7 °C 62.1 °F /  16.7 °C 29.96in /  1014.4hPa SSW 1.0mph /  1.6km/h 7.0mph /  11.3km/h 83% 0.00in /  0mm
06:15 67.3 °F /  19.6 °C 62.0 °F /  16.7 °C 29.96in /  1014.4hPa SSW 2.0mph /  3.2km/h 7.0mph /  11.3km/h 83% 0.00in /  0mm
06:20 67.2 °F /  19.6 °C 61.9 °F /  16.6 °C 29.96in /  1014.4hPa SSW 3.0mph /  4.8km/h 8.0mph /  12.9km/h 83% 0.00in /  0mm
06:25 67.1 °F /  19.5 °C 62.1 °F /  16.7 °C 29.96in /  1014.4hPa SSW 2.0mph /  3.2km/h 9.0mph /  14.5km/h 84% 0.00in /  0mm
06:30 67.2 °F /  19.6 °C 62.2 °F /  16.8 °C 29.96in /  1014.4hPa SW 1.0mph /  1.6km/h 9.0mph /  14.5km/h 84% 0.00in /  0mm
06:35 67.2 °F /  19.6 °C 62.2 °F /  16.8 °C 29.96in /  1014.4hPa SSW 2.0mph /  3.2km/h 7.0mph /  11.3km/h 84% 0.00in /  0mm
06:40 67.3 °F /  19.6 °C 62.3 °F /  16.8 °C 29.96in /  1014.4hPa SW 4.0mph /  6.4km/h 8.0mph /  12.9km/h 84% 0.00in /  0mm
06:50 67.4 °F /  19.7 °C 62.4 °F /  16.9 °C 29.96in /  1014.4hPa SSW 2.0mph /  3.2km/h 10.0mph /  16.1km/h 84% 0.00in /  0mm
06:55 67.5 °F /  19.7 °C 62.5 °F /  16.9 °C 29.96in /  1014.4hPa SSW 4.0mph /  6.4km/h 10.0mph /  16.1km/h 84% 0.00in /  0mm
07:00 67.6 °F /  19.8 °C 62.6 °F /  17 °C 29.96in /  1014.4hPa SW 2.0mph /  3.2km/h 8.0mph /  12.9km/h 84% 0.00in /  0mm
07:05 67.7 °F /  19.8 °C 62.4 °F /  16.9 °C 29.96in /  1014.4hPa SW 3.0mph /  4.8km/h 10.0mph /  16.1km/h 83% 0.00in /  0mm
07:10 67.9 °F /  19.9 °C 62.6 °F /  17 °C 29.96in /  1014.4hPa SSW 3.0mph /  4.8km/h 11.0mph /  17.7km/h 83% 0.00in /  0mm
07:15 68.1 °F /  20.1 °C 62.7 °F /  17.1 °C 29.96in /  1014.4hPa SW 5.0mph /  8km/h 13.0mph /  20.9km/h 83% 0.00in /  0mm
07:20 68.2 °F /  20.1 °C 62.5 °F /  16.9 °C 29.96in /  1014.4hPa SW 7.0mph /  11.3km/h 13.0mph /  20.9km/h 82% 0.00in /  0mm
07:25 68.4 °F /  20.2 °C 62.7 °F /  17.1 °C 29.96in /  1014.4hPa SW 6.0mph /  9.7km/h 13.0mph /  20.9km/h 82% 0.00in /  0mm
07:35 68.8 °F /  20.4 °C 63.1 °F /  17.3 °C 29.96in /  1014.4hPa SSW 2.0mph /  3.2km/h 12.0mph /  19.3km/h 82% 0.00in /  0mm
07:40 69.0 °F /  20.6 °C 63.3 °F /  17.4 °C 29.96in /  1014.4hPa SSW 3.0mph /  4.8km/h 13.0mph /  20.9km/h 82% 0.00in /  0mm
07:45 69.3 °F /  20.7 °C 63.2 °F /  17.3 °C 29.96in /  1014.4hPa SSW 4.0mph /  6.4km/h 13.0mph /  20.9km/h 81% 0.00in /  0mm
07:50 69.6 °F /  20.9 °C 63.2 °F /  17.3 °C 29.96in /  1014.4hPa SSW 3.0mph /  4.8km/h 14.0mph /  22.5km/h 80% 0.00in /  0mm
07:55 69.9 °F /  21.1 °C 63.1 °F /  17.3 °C 29.96in /  1014.4hPa SW 6.0mph /  9.7km/h 14.0mph /  22.5km/h 79% 0.00in /  0mm
08:00 70.2 °F /  21.2 °C 63.0 °F /  17.2 °C 29.96in /  1014.4hPa SW 6.0mph /  9.7km/h 16.0mph /  25.7km/h 78% 0.00in /  0mm
08:05 70.5 °F /  21.4 °C 63.3 °F /  17.4 °C 29.96in /  1014.4hPa SSW 7.0mph /  11.3km/h 16.0mph /  25.7km/h 78% 0.00in /  0mm
08:10 70.7 °F /  21.5 °C 63.1 °F /  17.3 °C 29.96in /  1014.4hPa SW 8.0mph /  12.9km/h 14.0mph /  22.5km/h 77% 0.00in /  0mm
08:15 70.9 °F /  21.6 °C 63.3 °F /  17.4 °C 29.96in /  1014.4hPa SSW 5.0mph /  8km/h 14.0mph /  22.5km/h 77% 0.00in /  0mm
08:20 71.3 °F /  21.8 °C 64.1 °F /  17.8 °C 29.96in /  1014.4hPa South 2.0mph /  3.2km/h 14.0mph /  22.5km/h 78% 0.00in /  0mm
08:30 72.3 °F /  22.4 °C 63.9 °F /  17.7 °C 29.96in /  1014.4hPa SW 4.0mph /  6.4km/h 9.0mph /  14.5km/h 75% 0.00in /  0mm
08:35 72.8 °F /  22.7 °C 64.8 °F /  18.2 °C 29.96in /  1014.4hPa SSW 2.0mph /  3.2km/h 9.0mph /  14.5km/h 76% 0.00in /  0mm
08:40 73.3 °F /  22.9 °C 64.9 °F /  18.3 °C 29.96in /  1014.4hPa SW 2.0mph /  3.2km/h 12.0mph /  19.3km/h 75% 0.00in /  0mm
08:45 73.4 °F /  23 °C 64.6 °F /  18.1 °C 29.96in /  1014.4hPa SSW 3.0mph /  4.8km/h 12.0mph /  19.3km/h 74% 0.00in /  0mm
08:50 73.6 °F /  23.1 °C 64.8 °F /  18.2 °C 29.96in /  1014.4hPa SW 5.0mph /  8km/h 17.0mph /  27.4km/h 74% 0.00in /  0mm
08:55 73.6 °F /  23.1 °C 64.4 °F /  18 °C 29.95in /  1014.1hPa SSW 5.0mph /  8km/h 17.0mph /  27.4km/h 73% 0.00in /  0mm
09:00 73.7 °F /  23.2 °C 64.5 °F /  18.1 °C 29.95in /  1014.1hPa SW 6.0mph /  9.7km/h 15.0mph /  24.1km/h 73% 0.00in /  0mm
09:05 73.9 °F /  23.3 °C 64.7 °F /  18.2 °C 29.95in /  1014.1hPa SW 5.0mph /  8km/h 13.0mph /  20.9km/h 73% 0.00in /  0mm
09:10 74.2 °F /  23.4 °C 64.6 °F /  18.1 °C 29.95in /  1014.1hPa SW 4.0mph /  6.4km/h 12.0mph /  19.3km/h 72% 0.00in /  0mm
09:15 74.8 °F /  23.8 °C 65.6 °F /  18.7 °C 29.95in /  1014.1hPa SW 3.0mph /  4.8km/h 12.0mph /  19.3km/h 73% 0.00in /  0mm
09:20 75.2 °F /  24 °C 65.2 °F /  18.4 °C 29.95in /  1014.1hPa SSW 6.0mph /  9.7km/h 14.0mph /  22.5km/h 71% 0.00in /  0mm
09:25 75.5 °F /  24.2 °C 65.9 °F /  18.8 °C 29.95in /  1014.1hPa SW 3.0mph /  4.8km/h 14.0mph /  22.5km/h 72% 0.00in /  0mm
09:35 75.9 °F /  24.4 °C 65.4 °F /  18.6 °C 29.95in /  1014.1hPa SW 4.0mph /  6.4km/h 13.0mph /  20.9km/h 70% 0.00in /  0mm
09:40 75.8 °F /  24.3 °C 64.9 °F /  18.3 °C 29.95in /  1014.1hPa SW 3.0mph /  4.8km/h 13.0mph /  20.9km/h 69% 0.00in /  0mm
09:45 75.9 °F /  24.4 °C 65.4 °F /  18.6 °C 29.95in /  1014.1hPa SSW 3.0mph /  4.8km/h 17.0mph /  27.4km/h 70% 0.00in /  0mm
09:50 76.3 °F /  24.6 °C 65.4 °F /  18.6 °C 29.95in /  1014.1hPa SW 7.0mph /  11.3km/h 17.0mph /  27.4km/h 69% 0.00in /  0mm
09:55 76.0 °F /  24.4 °C 65.5 °F /  18.6 °C 29.95in /  1014.1hPa SW 7.0mph /  11.3km/h 16.0mph /  25.7km/h 70% 0.00in /  0mm
10:00 76.2 °F /  24.6 °C 65.3 °F /  18.5 °C 29.95in /  1014.1hPa WSW 6.0mph /  9.7km/h 16.0mph /  25.7km/h 69% 0.00in /  0mm
10:05 76.2 °F /  24.6 °C 64.9 °F /  18.3 °C 29.95in /  1014.1hPa SW 6.0mph /  9.7km/h 13.0mph /  20.9km/h 68% 0.00in /  0mm
10:10 76.2 °F /  24.6 °C 65.3 °F /  18.5 °C 29.95in /  1014.1hPa SW 5.0mph /  8km/h 14.0mph /  22.5km/h 69% 0.00in /  0mm
10:15 76.6 °F /  24.8 °C 65.3 °F /  18.5 °C 29.95in /  1014.1hPa SW 7.0mph /  11.3km/h 14.0mph /  22.5km/h 68% 0.00in /  0mm
10:20 76.9 °F /  24.9 °C 65.5 °F /  18.6 °C 29.94in /  1013.8hPa SW 5.0mph /  8km/h 14.0mph /  22.5km/h 68% 0.00in /  0mm
10:25 77.2 °F /  25.1 °C 65.0 °F /  18.3 °C 29.95in /  1014.1hPa SSW 4.0mph /  6.4km/h 14.0mph /  22.5km/h 66% 0.00in /  0mm
10:30 77.2 °F /  25.1 °C 66.3 °F /  19.1 °C 29.94in /  1013.8hPa South 5.0mph /  8km/h 12.0mph /  19.3km/h 69% 0.00in /  0mm
10:35 77.7 °F /  25.4 °C 66.3 °F /  19.1 °C 29.94in /  1013.8hPa SW 4.0mph /  6.4km/h 13.0mph /  20.9km/h 68% 0.00in /  0mm
10:40 77.9 °F /  25.5 °C 65.6 °F /  18.7 °C 29.94in /  1013.8hPa SW 5.0mph /  8km/h 13.0mph /  20.9km/h 66% 0.00in /  0mm
10:45 78.4 °F /  25.8 °C 67.4 °F /  19.7 °C 29.94in /  1013.8hPa South 3.0mph /  4.8km/h 13.0mph /  20.9km/h 69% 0.00in /  0mm
10:50 78.7 °F /  25.9 °C 65.5 °F /  18.6 °C 29.94in /  1013.8hPa SSW 5.0mph /  8km/h 13.0mph /  20.9km/h 64% 0.00in /  0mm
10:55 78.5 °F /  25.8 °C 66.2 °F /  19 °C 29.94in /  1013.8hPa South 4.0mph /  6.4km/h 13.0mph /  20.9km/h 66% 0.00in /  0mm
11:00 78.5 °F /  25.8 °C 66.6 °F /  19.2 °C 29.94in /  1013.8hPa WSW 2.0mph /  3.2km/h 13.0mph /  20.9km/h 67% 0.00in /  0mm
11:05 78.8 °F /  26 °C 65.6 °F /  18.7 °C 29.94in /  1013.8hPa SSW 4.0mph /  6.4km/h 14.0mph /  22.5km/h 64% 0.00in /  0mm
11:10 79.1 °F /  26.2 °C 67.2 °F /  19.6 °C 29.94in /  1013.8hPa SSW 4.0mph /  6.4km/h 14.0mph /  22.5km/h 67% 0.00in /  0mm
11:15 79.0 °F /  26.1 °C 66.7 °F /  19.3 °C 29.93in /  1013.4hPa SW 6.0mph /  9.7km/h 14.0mph /  22.5km/h 66% 0.00in /  0mm
11:20 78.9 °F /  26.1 °C 66.1 °F /  18.9 °C 29.93in /  1013.4hPa SSW 5.0mph /  8km/h 15.0mph /  24.1km/h 65% 0.00in /  0mm
11:25 79.1 °F /  26.2 °C 66.8 °F /  19.3 °C 29.93in /  1013.4hPa SW 4.0mph /  6.4km/h 15.0mph /  24.1km/h 66% 0.00in /  0mm
11:30 79.2 °F /  26.2 °C 66.9 °F /  19.4 °C 29.93in /  1013.4hPa SW 7.0mph /  11.3km/h 13.0mph /  20.9km/h 66% 0.00in /  0mm
11:35 79.6 °F /  26.4 °C 65.9 °F /  18.8 °C 29.93in /  1013.4hPa SSW 6.0mph /  9.7km/h 13.0mph /  20.9km/h 63% 0.00in /  0mm
11:45 80.2 °F /  26.8 °C 66.5 °F /  19.2 °C 29.93in /  1013.4hPa SW 4.0mph /  6.4km/h 14.0mph /  22.5km/h 63% 0.00in /  0mm
11:50 80.5 °F /  26.9 °C 66.8 °F /  19.3 °C 29.93in /  1013.4hPa SSW 3.0mph /  4.8km/h 13.0mph /  20.9km/h 63% 0.00in /  0mm
11:55 81.1 °F /  27.3 °C 67.8 °F /  19.9 °C 29.93in /  1013.4hPa SW 4.0mph /  6.4km/h 13.0mph /  20.9km/h 64% 0.00in /  0mm
12:00 81.1 °F /  27.3 °C 67.3 °F /  19.6 °C 29.92in /  1013.1hPa WSW 5.0mph /  8km/h 12.0mph /  19.3km/h 63% 0.00in /  0mm
12:05 81.2 °F /  27.3 °C 67.4 °F /  19.7 °C 29.93in /  1013.4hPa SW 7.0mph /  11.3km/h 14.0mph /  22.5km/h 63% 0.00in /  0mm
12:10 81.0 °F /  27.2 °C 68.1 °F /  20.1 °C 29.92in /  1013.1hPa SSW 3.0mph /  4.8km/h 14.0mph /  22.5km/h 65% 0.00in /  0mm
12:15 81.1 °F /  27.3 °C 65.9 °F /  18.8 °C 29.92in /  1013.1hPa WSW 5.0mph /  8km/h 12.0mph /  19.3km/h 60% 0.00in /  0mm
12:20 81.4 °F /  27.4 °C 66.7 °F /  19.3 °C 29.92in /  1013.1hPa SSW 4.0mph /  6.4km/h 11.0mph /  17.7km/h 61% 0.00in /  0mm
12:25 81.4 °F /  27.4 °C 65.7 °F /  18.7 °C 29.92in /  1013.1hPa SSW 7.0mph /  11.3km/h 14.0mph /  22.5km/h 59% 0.00in /  0mm
12:30 81.2 °F /  27.3 °C 66.0 °F /  18.9 °C 29.92in /  1013.1hPa SW 6.0mph /  9.7km/h 14.0mph /  22.5km/h 60% 0.00in /  0mm
12:35 81.0 °F /  27.2 °C 65.8 °F /  18.8 °C 29.92in /  1013.1hPa SSW 5.0mph /  8km/h 17.0mph /  27.4km/h 60% 0.00in /  0mm
12:40 81.4 °F /  27.4 °C 66.7 °F /  19.3 °C 29.92in /  1013.1hPa SW 6.0mph /  9.7km/h 17.0mph /  27.4km/h 61% 0.00in /  0mm
12:45 81.5 °F /  27.5 °C 66.3 °F /  19.1 °C 29.91in /  1012.8hPa SW 5.0mph /  8km/h 10.0mph /  16.1km/h 60% 0.00in /  0mm
12:50 81.9 °F /  27.7 °C 66.7 °F /  19.3 °C 29.91in /  1012.8hPa SSW 5.0mph /  8km/h 11.0mph /  17.7km/h 60% 0.00in /  0mm
12:55 82.1 °F /  27.8 °C 66.9 °F /  19.4 °C 29.91in /  1012.8hPa SSW 3.0mph /  4.8km/h 11.0mph /  17.7km/h 60% 0.00in /  0mm
13:00 82.1 °F /  27.8 °C 66.9 °F /  19.4 °C 29.91in /  1012.8hPa SSW 6.0mph /  9.7km/h 16.0mph /  25.7km/h 60% 0.00in /  0mm
13:05 82.4 °F /  28 °C 67.1 °F /  19.5 °C 29.91in /  1012.8hPa SW 8.0mph /  12.9km/h 16.0mph /  25.7km/h 60% 0.00in /  0mm
13:10 82.3 °F /  27.9 °C 68.0 °F /  20 °C 29.91in /  1012.8hPa SSW 3.0mph /  4.8km/h 16.0mph /  25.7km/h 62% 0.00in /  0mm
13:15 82.3 °F /  27.9 °C 67.0 °F /  19.4 °C 29.90in /  1012.4hPa SW 5.0mph /  8km/h 16.0mph /  25.7km/h 60% 0.00in /  0mm
13:25 82.5 °F /  28.1 °C 66.7 °F /  19.3 °C 29.90in /  1012.4hPa SSW 6.0mph /  9.7km/h 15.0mph /  24.1km/h 59% 0.00in /  0mm
13:30 82.5 °F /  28.1 °C 66.7 °F /  19.3 °C 29.89in /  1012.1hPa WSW 3.0mph /  4.8km/h 15.0mph /  24.1km/h 59% 0.00in /  0mm
13:35 83.1 °F /  28.4 °C 66.8 °F /  19.3 °C 29.89in /  1012.1hPa SSW 4.0mph /  6.4km/h 14.0mph /  22.5km/h 58% 0.00in /  0mm
13:40 83.5 °F /  28.6 °C 68.2 °F /  20.1 °C 29.89in /  1012.1hPa SSW 3.0mph /  4.8km/h 10.0mph /  16.1km/h 60% 0.00in /  0mm
13:45 83.7 °F /  28.7 °C 68.8 °F /  20.4 °C 29.89in /  1012.1hPa SE 1.0mph /  1.6km/h 10.0mph /  16.1km/h 61% 0.00in /  0mm
13:50 83.7 °F /  28.7 °C 67.4 °F /  19.7 °C 29.89in /  1012.1hPa SW 5.0mph /  8km/h 12.0mph /  19.3km/h 58% 0.00in /  0mm
13:55 83.6 °F /  28.7 °C 68.3 °F /  20.2 °C 29.88in /  1011.7hPa WSW 1.0mph /  1.6km/h 12.0mph /  19.3km/h 60% 0.00in /  0mm
14:00 83.9 °F /  28.8 °C 66.5 °F /  19.2 °C 29.88in /  1011.7hPa SW 5.0mph /  8km/h 10.0mph /  16.1km/h 56% 0.00in /  0mm
14:05 83.8 °F /  28.8 °C 68.9 °F /  20.5 °C 29.88in /  1011.7hPa SW 4.0mph /  6.4km/h 14.0mph /  22.5km/h 61% 0.00in /  0mm
14:10 83.7 °F /  28.7 °C 67.4 °F /  19.7 °C 29.88in /  1011.7hPa WSW 5.0mph /  8km/h 14.0mph /  22.5km/h 58% 0.00in /  0mm
14:15 83.7 °F /  28.7 °C 65.8 °F /  18.8 °C 29.88in /  1011.7hPa SW 6.0mph /  9.7km/h 16.0mph /  25.7km/h 55% 0.00in /  0mm
14:20 84.0 °F /  28.9 °C 68.2 °F /  20.1 °C 29.88in /  1011.7hPa WSW 4.0mph /  6.4km/h 16.0mph /  25.7km/h 59% 0.00in /  0mm
14:25 83.8 °F /  28.8 °C 65.9 °F /  18.8 °C 29.88in /  1011.7hPa WSW 3.0mph /  4.8km/h 12.0mph /  19.3km/h 55% 0.00in /  0mm
14:30 84.0 °F /  28.9 °C 65.6 °F /  18.7 °C 29.87in /  1011.4hPa WSW 5.0mph /  8km/h 12.0mph /  19.3km/h 54% 0.00in /  0mm
14:35 84.1 °F /  28.9 °C 66.2 °F /  19 °C 29.87in /  1011.4hPa WSW 3.0mph /  4.8km/h 11.0mph /  17.7km/h 55% 0.00in /  0mm
14:40 84.4 °F /  29.1 °C 67.0 °F /  19.4 °C 29.87in /  1011.4hPa WSW 3.0mph /  4.8km/h 9.0mph /  14.5km/h 56% 0.00in /  0mm
14:45 84.8 °F /  29.3 °C 66.3 °F /  19.1 °C 29.87in /  1011.4hPa SW 6.0mph /  9.7km/h 11.0mph /  17.7km/h 54% 0.00in /  0mm
14:50 85.1 °F /  29.5 °C 66.6 °F /  19.2 °C 29.86in /  1011.1hPa SW 4.0mph /  6.4km/h 14.0mph /  22.5km/h 54% 0.00in /  0mm
14:54 84.9 °F /  29.4 °C 68.0 °F /  20 °C 29.86in /  1011.1hPa SW 4.0mph /  6.4km/h 14.0mph /  22.5km/h 57% 0.00in /  0mm
15:00 85.0 °F /  29.4 °C 67.6 °F /  19.8 °C 29.86in /  1011.1hPa SW 2.0mph /  3.2km/h 9.0mph /  14.5km/h 56% 0.00in /  0mm
15:05 85.2 °F /  29.6 °C 67.2 °F /  19.6 °C 29.86in /  1011.1hPa SSW 3.0mph /  4.8km/h 10.0mph /  16.1km/h 55% 0.00in /  0mm
15:10 85.3 °F /  29.6 °C 66.3 °F /  19.1 °C 29.86in /  1011.1hPa SW 5.0mph /  8km/h 10.0mph /  16.1km/h 53% 0.00in /  0mm
15:15 85.3 °F /  29.6 °C 67.3 °F /  19.6 °C 29.85in /  1010.7hPa SSW 5.0mph /  8km/h 12.0mph /  19.3km/h 55% 0.00in /  0mm
15:20 85.5 °F /  29.7 °C 69.1 °F /  20.6 °C 29.85in /  1010.7hPa SE 2.0mph /  3.2km/h 12.0mph /  19.3km/h 58% 0.00in /  0mm
15:25 85.0 °F /  29.4 °C 66.0 °F /  18.9 °C 29.85in /  1010.7hPa South 3.0mph /  4.8km/h 12.0mph /  19.3km/h 53% 0.00in /  0mm
15:30 84.3 °F /  29.1 °C 67.4 °F /  19.7 °C 29.85in /  1010.7hPa SSE 2.0mph /  3.2km/h 11.0mph /  17.7km/h 57% 0.00in /  0mm
15:35 84.0 °F /  28.9 °C 66.1 °F /  18.9 °C 29.85in /  1010.7hPa South 3.0mph /  4.8km/h 7.0mph /  11.3km/h 55% 0.00in /  0mm
15:40 83.9 °F /  28.8 °C 67.6 °F /  19.8 °C 29.84in /  1010.4hPa Calm   10.0mph /  16.1km/h 58% 0.00in /  0mm
15:45 84.3 °F /  29.1 °C 65.9 °F /  18.8 °C 29.84in /  1010.4hPa South 1.0mph /  1.6km/h 10.0mph /  16.1km/h 54% 0.00in /  0mm
15:50 84.7 °F /  29.3 °C 64.0 °F /  17.8 °C 29.84in /  1010.4hPa SW 3.0mph /  4.8km/h 9.0mph /  14.5km/h 50% 0.00in /  0mm
15:54 84.8 °F /  29.3 °C 65.2 °F /  18.4 °C 29.84in /  1010.4hPa SSW 2.0mph /  3.2km/h 10.0mph /  16.1km/h 52% 0.00in /  0mm
16:00 84.9 °F /  29.4 °C 61.8 °F /  16.6 °C 29.84in /  1010.4hPa South 4.0mph /  6.4km/h 12.0mph /  19.3km/h 46% 0.00in /  0mm
16:05 84.9 °F /  29.4 °C 59.9 °F /  15.5 °C 29.84in /  1010.4hPa SSE 1.0mph /  1.6km/h 12.0mph /  19.3km/h 43% 0.00in /  0mm
16:09 85.2 °F /  29.6 °C 61.5 °F /  16.4 °C 29.84in /  1010.4hPa South 2.0mph /  3.2km/h 12.0mph /  19.3km/h 45% 0.00in /  0mm
16:15 85.3 °F /  29.6 °C 60.3 °F /  15.7 °C 29.83in /  1010hPa SSW 2.0mph /  3.2km/h 10.0mph /  16.1km/h 43% 0.00in /  0mm
16:20 85.5 °F /  29.7 °C 59.1 °F /  15.1 °C 29.83in /  1010hPa SSW 2.0mph /  3.2km/h 13.0mph /  20.9km/h 41% 0.00in /  0mm
16:25 85.7 °F /  29.8 °C 60.0 °F /  15.6 °C 29.83in /  1010hPa SW 3.0mph /  4.8km/h 13.0mph /  20.9km/h 42% 0.00in /  0mm
16:30 85.6 °F /  29.8 °C 57.8 °F /  14.3 °C 29.83in /  1010hPa SSW 3.0mph /  4.8km/h 14.0mph /  22.5km/h 39% 0.00in /  0mm
16:35 85.3 °F /  29.6 °C 59.6 °F /  15.3 °C 29.83in /  1010hPa Calm   14.0mph /  22.5km/h 42% 0.00in /  0mm
16:40 85.2 °F /  29.6 °C 56.8 °F /  13.8 °C 29.83in /  1010hPa SSW 3.0mph /  4.8km/h 12.0mph /  19.3km/h 38% 0.00in /  0mm
16:45 85.2 °F /  29.6 °C 57.5 °F /  14.2 °C 29.83in /  1010hPa SW 4.0mph /  6.4km/h 12.0mph /  19.3km/h 39% 0.00in /  0mm
16:50 85.0 °F /  29.4 °C 59.4 °F /  15.2 °C 29.83in /  1010hPa Calm   12.0mph /  19.3km/h 42% 0.00in /  0mm
16:55 85.1 °F /  29.5 °C 58.8 °F /  14.9 °C 29.83in /  1010hPa SW 4.0mph /  6.4km/h 10.0mph /  16.1km/h 41% 0.00in /  0mm
16:59 85.1 °F /  29.5 °C 58.1 °F /  14.5 °C 29.82in /  1009.7hPa SSW 3.0mph /  4.8km/h 10.0mph /  16.1km/h 40% 0.00in /  0mm
17:05 84.9 °F /  29.4 °C 57.2 °F /  14 °C 29.82in /  1009.7hPa SSW 4.0mph /  6.4km/h 11.0mph /  17.7km/h 39% 0.00in /  0mm
17:10 84.5 °F /  29.2 °C 58.9 °F /  14.9 °C 29.82in /  1009.7hPa SW 2.0mph /  3.2km/h 11.0mph /  17.7km/h 42% 0.00in /  0mm
17:15 84.3 °F /  29.1 °C 57.4 °F /  14.1 °C 29.82in /  1009.7hPa SSW 1.0mph /  1.6km/h 12.0mph /  19.3km/h 40% 0.00in /  0mm
17:25 84.5 °F /  29.2 °C 59.6 °F /  15.3 °C 29.82in /  1009.7hPa Calm   10.0mph /  16.1km/h 43% 0.00in /  0mm
17:30 84.3 °F /  29.1 °C 57.4 °F /  14.1 °C 29.82in /  1009.7hPa SW 5.0mph /  8km/h 12.0mph /  19.3km/h 40% 0.00in /  0mm
17:35 84.1 °F /  28.9 °C 57.9 °F /  14.4 °C 29.82in /  1009.7hPa Calm   12.0mph /  19.3km/h 41% 0.00in /  0mm
17:40 84.4 °F /  29.1 °C 59.5 °F /  15.3 °C 29.82in /  1009.7hPa Calm   10.0mph /  16.1km/h 43% 0.00in /  0mm
17:45 84.4 °F /  29.1 °C 60.1 °F /  15.6 °C 29.82in /  1009.7hPa SW 1.0mph /  1.6km/h 10.0mph /  16.1km/h 44% 0.00in /  0mm
17:50 84.4 °F /  29.1 °C 58.8 °F /  14.9 °C 29.82in /  1009.7hPa Calm   10.0mph /  16.1km/h 42% 0.00in /  0mm
17:55 84.3 °F /  29.1 °C 59.4 °F /  15.2 °C 29.82in /  1009.7hPa Calm   10.0mph /  16.1km/h 43% 0.00in /  0mm
18:00 83.9 °F /  28.8 °C 58.4 °F /  14.7 °C 29.81in /  1009.4hPa SSE 2.0mph /  3.2km/h 10.0mph /  16.1km/h 42% 0.00in /  0mm
18:05 83.7 °F /  28.7 °C 58.9 °F /  14.9 °C 29.81in /  1009.4hPa Calm   9.0mph /  14.5km/h 43% 0.00in /  0mm
18:10 83.4 °F /  28.6 °C 58.6 °F /  14.8 °C 29.81in /  1009.4hPa South 1.0mph /  1.6km/h 11.0mph /  17.7km/h 43% 0.00in /  0mm
18:15 83.4 °F /  28.6 °C 59.2 °F /  15.1 °C 29.81in /  1009.4hPa Calm   11.0mph /  17.7km/h 44% 0.00in /  0mm
18:20 83.3 °F /  28.5 °C 58.5 °F /  14.7 °C 29.81in /  1009.4hPa SW 4.0mph /  6.4km/h 8.0mph /  12.9km/h 43% 0.00in /  0mm
18:30 83.0 °F /  28.3 °C 59.5 °F /  15.3 °C 29.81in /  1009.4hPa Calm   7.0mph /  11.3km/h 45% 0.00in /  0mm
18:40 82.4 °F /  28 °C 59.0 °F /  15 °C 29.81in /  1009.4hPa SSW 2.0mph /  3.2km/h 12.0mph /  19.3km/h 45% 0.00in /  0mm
18:45 82.3 °F /  27.9 °C 58.9 °F /  14.9 °C 29.81in /  1009.4hPa Calm   7.0mph /  11.3km/h 45% 0.00in /  0mm
18:50 82.3 °F /  27.9 °C 58.2 °F /  14.6 °C 29.81in /  1009.4hPa SSW 1.0mph /  1.6km/h 7.0mph /  11.3km/h 44% 0.00in /  0mm
18:55 82.0 °F /  27.8 °C 59.2 °F /  15.1 °C 29.81in /  1009.4hPa Calm   7.0mph /  11.3km/h 46% 0.00in /  0mm
19:00 81.7 °F /  27.6 °C 58.9 °F /  14.9 °C 29.81in /  1009.4hPa SSW 1.0mph /  1.6km/h 6.0mph /  9.7km/h 46% 0.00in /  0mm
19:05 81.4 °F /  27.4 °C 58.7 °F /  14.8 °C 29.81in /  1009.4hPa SSW 2.0mph /  3.2km/h 13.0mph /  20.9km/h 46% 0.00in /  0mm
19:10 81.0 °F /  27.2 °C 58.9 °F /  14.9 °C 29.81in /  1009.4hPa SW 1.0mph /  1.6km/h 13.0mph /  20.9km/h 47% 0.00in /  0mm
19:15 80.6 °F /  27 °C 59.7 °F /  15.4 °C 29.81in /  1009.4hPa Calm   7.0mph /  11.3km/h 49% 0.00in /  0mm
19:20 80.2 °F /  26.8 °C 59.3 °F /  15.2 °C 29.81in /  1009.4hPa Calm   4.0mph /  6.4km/h 49% 0.00in /  0mm
19:25 80.0 °F /  26.7 °C 59.2 °F /  15.1 °C 29.82in /  1009.7hPa Calm   3.0mph /  4.8km/h 49% 0.00in /  0mm
19:30 79.6 °F /  26.4 °C 59.4 °F /  15.2 °C 29.81in /  1009.4hPa Calm   6.0mph /  9.7km/h 50% 0.00in /  0mm
19:35 78.9 °F /  26.1 °C 58.7 °F /  14.8 °C 29.81in /  1009.4hPa SSW 1.0mph /  1.6km/h 8.0mph /  12.9km/h 50% 0.00in /  0mm
19:40 78.5 °F /  25.8 °C 58.9 °F /  14.9 °C 29.81in /  1009.4hPa Calm   8.0mph /  12.9km/h 51% 0.00in /  0mm
19:45 78.0 °F /  25.6 °C 58.4 °F /  14.7 °C 29.81in /  1009.4hPa Calm   6.0mph /  9.7km/h 51% 0.00in /  0mm
19:55 76.8 °F /  24.9 °C 57.9 °F /  14.4 °C 29.82in /  1009.7hPa SSW 2.0mph /  3.2km/h 7.0mph /  11.3km/h 52% 0.00in /  0mm
20:05 75.3 °F /  24.1 °C 58.5 °F /  14.7 °C 29.82in /  1009.7hPa SW 2.0mph /  3.2km/h 6.0mph /  9.7km/h 56% 0.00in /  0mm
20:15 73.8 °F /  23.2 °C 57.6 °F /  14.2 °C 29.82in /  1009.7hPa Calm   4.0mph /  6.4km/h 57% 0.00in /  0mm
20:20 73.2 °F /  22.9 °C 57.6 °F /  14.2 °C 29.82in /  1009.7hPa Calm   4.0mph /  6.4km/h 58% 0.00in /  0mm
20:25 72.7 °F /  22.6 °C 57.1 °F /  13.9 °C 29.82in /  1009.7hPa Calm     58% 0.00in /  0mm
20:30 72.2 °F /  22.3 °C 57.1 °F /  13.9 °C 29.82in /  1009.7hPa Calm   3.0mph /  4.8km/h 59% 0.00in /  0mm
20:35 71.7 °F /  22.1 °C 57.5 °F /  14.2 °C 29.83in /  1010hPa Calm   3.0mph /  4.8km/h 61% 0.00in /  0mm
20:40 71.1 °F /  21.7 °C 57.4 °F /  14.1 °C 29.83in /  1010hPa Calm     62% 0.00in /  0mm
20:45 70.4 °F /  21.3 °C 56.3 °F /  13.5 °C 29.83in /  1010hPa Calm     61% 0.00in /  0mm
20:50 69.9 °F /  21.1 °C 56.7 °F /  13.7 °C 29.83in /  1010hPa Calm     63% 0.00in /  0mm
20:55 69.3 °F /  20.7 °C 56.6 °F /  13.7 °C 29.83in /  1010hPa Calm     64% 0.00in /  0mm
21:00 68.6 °F /  20.3 °C 56.4 °F /  13.6 °C 29.83in /  1010hPa Calm     65% 0.00in /  0mm
21:05 68.2 °F /  20.1 °C 56.0 °F /  13.3 °C 29.83in /  1010hPa Calm     65% 0.00in /  0mm
21:10 67.9 °F /  19.9 °C 56.1 °F /  13.4 °C 29.83in /  1010hPa Calm     66% 0.00in /  0mm
21:15 67.6 °F /  19.8 °C 56.7 °F /  13.7 °C 29.83in /  1010hPa Calm     68% 0.00in /  0mm
21:20 67.2 °F /  19.6 °C 56.7 °F /  13.7 °C 29.83in /  1010hPa Calm     69% 0.00in /  0mm
21:25 67.1 °F /  19.5 °C 56.2 °F /  13.4 °C 29.83in /  1010hPa Calm   3.0mph /  4.8km/h 68% 0.00in /  0mm
21:30 67.2 °F /  19.6 °C 56.3 °F /  13.5 °C 29.83in /  1010hPa Calm   5.0mph /  8km/h 68% 0.00in /  0mm
21:35 67.4 °F /  19.7 °C 56.5 °F /  13.6 °C 29.83in /  1010hPa Calm   5.0mph /  8km/h 68% 0.00in /  0mm
21:40 67.5 °F /  19.7 °C 57.0 °F /  13.9 °C 29.83in /  1010hPa Calm   3.0mph /  4.8km/h 69% 0.00in /  0mm
21:45 67.4 °F /  19.7 °C 56.9 °F /  13.8 °C 29.83in /  1010hPa Calm   3.0mph /  4.8km/h 69% 0.00in /  0mm
21:55 67.0 °F /  19.4 °C 56.9 °F /  13.8 °C 29.83in /  1010hPa Calm     70% 0.00in /  0mm
22:00 66.8 °F /  19.3 °C 56.7 °F /  13.7 °C 29.82in /  1009.7hPa SSW 1.0mph /  1.6km/h 3.0mph /  4.8km/h 70% 0.00in /  0mm
22:05 66.9 °F /  19.4 °C 56.4 °F /  13.6 °C 29.83in /  1010hPa Calm   3.0mph /  4.8km/h 69% 0.00in /  0mm
22:10 67.2 °F /  19.6 °C 56.7 °F /  13.7 °C 29.82in /  1009.7hPa Calm   3.0mph /  4.8km/h 69% 0.00in /  0mm
22:15 67.4 °F /  19.7 °C 56.5 °F /  13.6 °C 29.82in /  1009.7hPa Calm   3.0mph /  4.8km/h 68% 0.00in /  0mm
22:20 67.6 °F /  19.8 °C 56.7 °F /  13.7 °C 29.82in /  1009.7hPa SSW 1.0mph /  1.6km/h 4.0mph /  6.4km/h 68% 0.00in /  0mm
22:25 68.1 °F /  20.1 °C 56.7 °F /  13.7 °C 29.82in /  1009.7hPa Calm   5.0mph /  8km/h 67% 0.00in /  0mm
22:30 68.2 °F /  20.1 °C 56.4 °F /  13.6 °C 29.82in /  1009.7hPa Calm   5.0mph /  8km/h 66% 0.00in /  0mm
22:35 68.3 °F /  20.2 °C 56.5 °F /  13.6 °C 29.82in /  1009.7hPa Calm   1.0mph /  1.6km/h 66% 0.00in /  0mm
22:40 68.0 °F /  20 °C 56.6 °F /  13.7 °C 29.82in /  1009.7hPa Calm     67% 0.00in /  0mm
22:50 67.3 °F /  19.6 °C 56.4 °F /  13.6 °C 29.82in /  1009.7hPa Calm     68% 0.00in /  0mm
22:55 66.9 °F /  19.4 °C 56.4 °F /  13.6 °C 29.82in /  1009.7hPa Calm   1.0mph /  1.6km/h 69% 0.00in /  0mm
23:05 66.0 °F /  18.9 °C 56.3 °F /  13.5 °C 29.81in /  1009.4hPa Calm     71% 0.00in /  0mm
23:10 65.7 °F /  18.7 °C 56.4 °F /  13.6 °C 29.81in /  1009.4hPa Calm   2.0mph /  3.2km/h 72% 0.00in /  0mm
23:15 65.6 °F /  18.7 °C 56.3 °F /  13.5 °C 29.82in /  1009.7hPa Calm   3.0mph /  4.8km/h 72% 0.00in /  0mm
23:20 65.6 °F /  18.7 °C 56.3 °F /  13.5 °C 29.82in /  1009.7hPa Calm   6.0mph /  9.7km/h 72% 0.00in /  0mm
23:25 65.7 °F /  18.7 °C 56.4 °F /  13.6 °C 29.81in /  1009.4hPa SSW 1.0mph /  1.6km/h 6.0mph /  9.7km/h 72% 0.00in /  0mm
23:30 66.2 °F /  19 °C 56.5 °F /  13.6 °C 29.81in /  1009.4hPa Calm   6.0mph /  9.7km/h 71% 0.00in /  0mm
23:40 67.1 °F /  19.5 °C 57.0 °F /  13.9 °C 29.81in /  1009.4hPa SW 2.0mph /  3.2km/h 6.0mph /  9.7km/h 70% 0.00in /  0mm
23:45 67.3 °F /  19.6 °C 57.2 °F /  14 °C 29.81in /  1009.4hPa SSW 1.0mph /  1.6km/h 6.0mph /  9.7km/h 70% 0.00in /  0mm
23:50 67.4 °F /  19.7 °C 57.3 °F /  14.1 °C 29.81in /  1009.4hPa SSW 1.0mph /  1.6km/h 7.0mph /  11.3km/h 70% 0.00in /  0mm
23:55 67.4 °F /  19.7 °C 57.3 °F /  14.1 °C 29.81in /  1009.4hPa SSW 1.0mph /  1.6km/h 7.0mph /  11.3km/h 70% 0.00in /  0mm
Westford Weather
Compliments of Weather Underground

 
 
Current Radar Loop:

Copyright © WestfordWeather.net 2007-2014. All rights reserved.